sensor_id;sensor_type;location;lat;lon;timestamp;P1;durP1;ratioP1;P2;durP2;ratioP2
69894;SDS011;57172;52.034;5.090;2022-09-13T00:00:48;7.78;;;5.38;;
69894;SDS011;57172;52.034;5.090;2022-09-13T00:03:17;8.40;;;5.22;;
69894;SDS011;57172;52.034;5.090;2022-09-13T00:05:44;9.65;;;5.43;;
69894;SDS011;57172;52.034;5.090;2022-09-13T00:08:11;8.83;;;5.27;;
69894;SDS011;57172;52.034;5.090;2022-09-13T00:10:39;8.77;;;5.47;;
69894;SDS011;57172;52.034;5.090;2022-09-13T00:13:07;8.07;;;5.18;;
69894;SDS011;57172;52.034;5.090;2022-09-13T00:15:36;8.95;;;5.55;;
69894;SDS011;57172;52.034;5.090;2022-09-13T00:18:08;11.90;;;6.00;;
69894;SDS011;57172;52.034;5.090;2022-09-13T00:20:35;11.10;;;6.50;;
69894;SDS011;57172;52.034;5.090;2022-09-13T00:23:01;9.20;;;6.05;;
69894;SDS011;57172;52.034;5.090;2022-09-13T00:25:28;8.75;;;5.72;;
69894;SDS011;57172;52.034;5.090;2022-09-13T00:27:55;10.27;;;5.90;;
69894;SDS011;57172;52.034;5.090;2022-09-13T00:30:22;8.13;;;5.40;;
69894;SDS011;57172;52.034;5.090;2022-09-13T00:32:49;8.53;;;5.40;;
69894;SDS011;57172;52.034;5.090;2022-09-13T00:35:16;13.23;;;7.50;;
69894;SDS011;57172;52.034;5.090;2022-09-13T00:37:42;9.75;;;6.40;;
69894;SDS011;57172;52.034;5.090;2022-09-13T00:40:09;11.07;;;6.50;;
69894;SDS011;57172;52.034;5.090;2022-09-13T00:42:36;8.88;;;5.80;;
69894;SDS011;57172;52.034;5.090;2022-09-13T00:47:37;9.07;;;6.13;;
69894;SDS011;57172;52.034;5.090;2022-09-13T00:50:19;10.88;;;7.15;;
69894;SDS011;57172;52.034;5.090;2022-09-13T00:53:00;13.10;;;8.07;;
69894;SDS011;57172;52.034;5.090;2022-09-13T00:55:30;12.35;;;7.45;;
69894;SDS011;57172;52.034;5.090;2022-09-13T00:58:04;12.17;;;8.00;;
69894;SDS011;57172;52.034;5.090;2022-09-13T01:00:34;13.73;;;8.88;;
69894;SDS011;57172;52.034;5.090;2022-09-13T01:03:03;17.05;;;8.93;;
69894;SDS011;57172;52.034;5.090;2022-09-13T01:05:36;16.13;;;8.95;;
69894;SDS011;57172;52.034;5.090;2022-09-13T01:08:08;14.10;;;8.93;;
69894;SDS011;57172;52.034;5.090;2022-09-13T01:10:48;17.30;;;7.97;;
69894;SDS011;57172;52.034;5.090;2022-09-13T01:13:20;12.75;;;8.30;;
69894;SDS011;57172;52.034;5.090;2022-09-13T01:15:50;10.55;;;7.47;;
69894;SDS011;57172;52.034;5.090;2022-09-13T01:18:17;11.15;;;7.85;;
69894;SDS011;57172;52.034;5.090;2022-09-13T01:20:47;11.65;;;7.78;;
69894;SDS011;57172;52.034;5.090;2022-09-13T01:32:46;18.75;;;9.85;;
69894;SDS011;57172;52.034;5.090;2022-09-13T01:35:40;13.93;;;9.35;;
69894;SDS011;57172;52.034;5.090;2022-09-13T01:44:17;16.33;;;10.50;;
69894;SDS011;57172;52.034;5.090;2022-09-13T01:46:55;20.17;;;11.57;;
69894;SDS011;57172;52.034;5.090;2022-09-13T01:50:03;18.13;;;11.50;;
69894;SDS011;57172;52.034;5.090;2022-09-13T01:52:59;19.17;;;10.83;;
69894;SDS011;57172;52.034;5.090;2022-09-13T02:00:47;20.23;;;12.15;;
69894;SDS011;57172;52.034;5.090;2022-09-13T02:03:28;18.10;;;11.43;;
69894;SDS011;57172;52.034;5.090;2022-09-13T02:06:02;17.93;;;11.27;;
69894;SDS011;57172;52.034;5.090;2022-09-13T02:08:38;17.38;;;11.18;;
69894;SDS011;57172;52.034;5.090;2022-09-13T02:11:10;16.90;;;11.05;;
69894;SDS011;57172;52.034;5.090;2022-09-13T02:13:39;19.90;;;11.52;;
69894;SDS011;57172;52.034;5.090;2022-09-13T02:16:16;17.20;;;11.25;;
69894;SDS011;57172;52.034;5.090;2022-09-13T02:18:51;18.10;;;10.90;;
69894;SDS011;57172;52.034;5.090;2022-09-13T02:21:25;17.92;;;12.20;;
69894;SDS011;57172;52.034;5.090;2022-09-13T02:24:01;18.15;;;10.88;;
69894;SDS011;57172;52.034;5.090;2022-09-13T02:26:32;18.17;;;11.57;;
69894;SDS011;57172;52.034;5.090;2022-09-13T02:29:04;16.65;;;11.10;;
69894;SDS011;57172;52.034;5.090;2022-09-13T02:31:37;16.77;;;11.47;;
69894;SDS011;57172;52.034;5.090;2022-09-13T02:34:20;18.73;;;12.05;;
69894;SDS011;57172;52.034;5.090;2022-09-13T02:36:50;21.52;;;11.13;;
69894;SDS011;57172;52.034;5.090;2022-09-13T02:39:21;19.27;;;11.88;;
69894;SDS011;57172;52.034;5.090;2022-09-13T02:44:42;17.73;;;11.20;;
69894;SDS011;57172;52.034;5.090;2022-09-13T02:58:13;20.20;;;12.90;;
69894;SDS011;57172;52.034;5.090;2022-09-13T03:00:51;21.38;;;13.13;;
69894;SDS011;57172;52.034;5.090;2022-09-13T03:03:18;23.27;;;14.10;;
69894;SDS011;57172;52.034;5.090;2022-09-13T03:05:46;25.20;;;14.90;;
69894;SDS011;57172;52.034;5.090;2022-09-13T03:08:12;21.55;;;14.35;;
69894;SDS011;57172;52.034;5.090;2022-09-13T03:13:33;22.05;;;13.52;;
69894;SDS011;57172;52.034;5.090;2022-09-13T03:16:23;20.98;;;13.55;;
69894;SDS011;57172;52.034;5.090;2022-09-13T03:27:50;19.58;;;12.95;;
69894;SDS011;57172;52.034;5.090;2022-09-13T03:30:32;20.98;;;12.95;;
69894;SDS011;57172;52.034;5.090;2022-09-13T03:35:46;20.73;;;13.57;;
69894;SDS011;57172;52.034;5.090;2022-09-13T03:38:33;23.97;;;14.50;;
69894;SDS011;57172;52.034;5.090;2022-09-13T03:41:05;22.85;;;14.00;;
69894;SDS011;57172;52.034;5.090;2022-09-13T03:43:55;22.23;;;13.43;;
69894;SDS011;57172;52.034;5.090;2022-09-13T03:46:37;21.08;;;14.30;;
69894;SDS011;57172;52.034;5.090;2022-09-13T03:49:12;22.85;;;14.73;;
69894;SDS011;57172;52.034;5.090;2022-09-13T03:51:44;23.60;;;14.27;;
69894;SDS011;57172;52.034;5.090;2022-09-13T03:54:31;25.42;;;16.15;;
69894;SDS011;57172;52.034;5.090;2022-09-13T03:57:16;24.15;;;15.65;;
69894;SDS011;57172;52.034;5.090;2022-09-13T03:59:53;23.85;;;15.45;;
69894;SDS011;57172;52.034;5.090;2022-09-13T04:02:22;25.65;;;15.75;;
69894;SDS011;57172;52.034;5.090;2022-09-13T04:04:50;26.23;;;15.47;;
69894;SDS011;57172;52.034;5.090;2022-09-13T04:07:18;24.58;;;15.27;;
69894;SDS011;57172;52.034;5.090;2022-09-13T04:09:47;23.67;;;15.00;;
69894;SDS011;57172;52.034;5.090;2022-09-13T04:12:14;23.83;;;14.95;;
69894;SDS011;57172;52.034;5.090;2022-09-13T04:14:42;22.52;;;14.57;;
69894;SDS011;57172;52.034;5.090;2022-09-13T04:17:09;25.40;;;15.20;;
69894;SDS011;57172;52.034;5.090;2022-09-13T04:19:37;26.17;;;15.35;;
69894;SDS011;57172;52.034;5.090;2022-09-13T04:22:05;26.52;;;16.00;;
69894;SDS011;57172;52.034;5.090;2022-09-13T04:24:32;24.25;;;15.30;;
69894;SDS011;57172;52.034;5.090;2022-09-13T04:26:59;31.17;;;17.85;;
69894;SDS011;57172;52.034;5.090;2022-09-13T04:29:27;29.20;;;16.73;;
69894;SDS011;57172;52.034;5.090;2022-09-13T04:31:54;25.63;;;16.52;;
69894;SDS011;57172;52.034;5.090;2022-09-13T04:34:21;26.40;;;16.33;;
69894;SDS011;57172;52.034;5.090;2022-09-13T04:36:49;31.33;;;17.52;;
69894;SDS011;57172;52.034;5.090;2022-09-13T04:39:18;27.38;;;15.65;;
69894;SDS011;57172;52.034;5.090;2022-09-13T04:41:46;28.83;;;18.03;;
69894;SDS011;57172;52.034;5.090;2022-09-13T04:44:14;30.40;;;19.13;;
69894;SDS011;57172;52.034;5.090;2022-09-13T04:46:42;28.48;;;18.23;;
69894;SDS011;57172;52.034;5.090;2022-09-13T04:49:13;29.65;;;17.65;;
69894;SDS011;57172;52.034;5.090;2022-09-13T04:51:41;30.42;;;18.33;;
69894;SDS011;57172;52.034;5.090;2022-09-13T04:54:08;32.37;;;19.07;;
69894;SDS011;57172;52.034;5.090;2022-09-13T04:56:41;29.40;;;17.35;;
69894;SDS011;57172;52.034;5.090;2022-09-13T04:59:09;29.60;;;18.48;;
69894;SDS011;57172;52.034;5.090;2022-09-13T05:01:37;28.38;;;17.63;;
69894;SDS011;57172;52.034;5.090;2022-09-13T05:04:07;31.38;;;18.08;;
69894;SDS011;57172;52.034;5.090;2022-09-13T05:06:35;28.37;;;18.27;;
69894;SDS011;57172;52.034;5.090;2022-09-13T05:09:02;31.77;;;17.60;;
69894;SDS011;57172;52.034;5.090;2022-09-13T05:11:30;31.50;;;19.10;;
69894;SDS011;57172;52.034;5.090;2022-09-13T05:13:58;33.38;;;18.80;;
69894;SDS011;57172;52.034;5.090;2022-09-13T05:16:26;30.23;;;18.40;;
69894;SDS011;57172;52.034;5.090;2022-09-13T05:18:55;32.53;;;18.73;;
69894;SDS011;57172;52.034;5.090;2022-09-13T05:21:22;31.13;;;18.60;;
69894;SDS011;57172;52.034;5.090;2022-09-13T05:23:52;29.95;;;18.85;;
69894;SDS011;57172;52.034;5.090;2022-09-13T05:26:21;35.13;;;19.77;;
69894;SDS011;57172;52.034;5.090;2022-09-13T05:28:49;32.70;;;19.35;;
69894;SDS011;57172;52.034;5.090;2022-09-13T05:31:24;30.87;;;19.03;;
69894;SDS011;57172;52.034;5.090;2022-09-13T05:33:58;29.65;;;18.77;;
69894;SDS011;57172;52.034;5.090;2022-09-13T05:36:30;32.50;;;19.25;;
69894;SDS011;57172;52.034;5.090;2022-09-13T05:38:57;30.08;;;20.27;;
69894;SDS011;57172;52.034;5.090;2022-09-13T05:41:44;33.20;;;20.20;;
69894;SDS011;57172;52.034;5.090;2022-09-13T05:44:11;32.17;;;19.73;;
69894;SDS011;57172;52.034;5.090;2022-09-13T05:46:39;32.63;;;19.80;;
69894;SDS011;57172;52.034;5.090;2022-09-13T05:49:07;32.13;;;20.33;;
69894;SDS011;57172;52.034;5.090;2022-09-13T05:51:34;34.67;;;20.58;;
69894;SDS011;57172;52.034;5.090;2022-09-13T05:54:01;34.88;;;20.73;;
69894;SDS011;57172;52.034;5.090;2022-09-13T05:56:28;36.50;;;21.23;;
69894;SDS011;57172;52.034;5.090;2022-09-13T05:58:57;34.60;;;20.95;;
69894;SDS011;57172;52.034;5.090;2022-09-13T06:01:25;35.78;;;21.00;;
69894;SDS011;57172;52.034;5.090;2022-09-13T06:03:54;31.48;;;20.63;;
69894;SDS011;57172;52.034;5.090;2022-09-13T06:06:24;35.05;;;21.15;;
69894;SDS011;57172;52.034;5.090;2022-09-13T06:08:52;37.13;;;21.60;;
69894;SDS011;57172;52.034;5.090;2022-09-13T06:11:20;33.50;;;21.00;;
69894;SDS011;57172;52.034;5.090;2022-09-13T06:13:47;32.17;;;20.90;;
69894;SDS011;57172;52.034;5.090;2022-09-13T06:16:14;36.38;;;21.27;;
69894;SDS011;57172;52.034;5.090;2022-09-13T06:18:42;39.03;;;21.83;;
69894;SDS011;57172;52.034;5.090;2022-09-13T06:21:10;36.23;;;21.63;;
69894;SDS011;57172;52.034;5.090;2022-09-13T06:23:43;35.38;;;20.65;;
69894;SDS011;57172;52.034;5.090;2022-09-13T06:26:11;38.35;;;21.52;;
69894;SDS011;57172;52.034;5.090;2022-09-13T06:28:40;34.58;;;21.17;;
69894;SDS011;57172;52.034;5.090;2022-09-13T06:31:08;33.17;;;20.42;;
69894;SDS011;57172;52.034;5.090;2022-09-13T06:33:37;35.57;;;20.93;;
69894;SDS011;57172;52.034;5.090;2022-09-13T06:36:09;33.80;;;20.95;;
69894;SDS011;57172;52.034;5.090;2022-09-13T06:38:40;36.55;;;20.98;;
69894;SDS011;57172;52.034;5.090;2022-09-13T06:41:14;36.90;;;20.98;;
69894;SDS011;57172;52.034;5.090;2022-09-13T06:43:46;37.75;;;20.60;;
69894;SDS011;57172;52.034;5.090;2022-09-13T06:46:17;32.30;;;20.00;;
69894;SDS011;57172;52.034;5.090;2022-09-13T06:48:50;38.33;;;20.63;;
69894;SDS011;57172;52.034;5.090;2022-09-13T06:51:19;33.45;;;19.35;;
69894;SDS011;57172;52.034;5.090;2022-09-13T06:53:48;30.58;;;19.05;;
69894;SDS011;57172;52.034;5.090;2022-09-13T06:56:19;35.20;;;19.98;;
69894;SDS011;57172;52.034;5.090;2022-09-13T06:58:58;34.30;;;19.77;;
69894;SDS011;57172;52.034;5.090;2022-09-13T07:01:27;32.00;;;18.73;;
69894;SDS011;57172;52.034;5.090;2022-09-13T07:04:00;31.15;;;18.63;;
69894;SDS011;57172;52.034;5.090;2022-09-13T07:06:31;32.17;;;19.55;;
69894;SDS011;57172;52.034;5.090;2022-09-13T07:08:59;28.85;;;18.40;;
69894;SDS011;57172;52.034;5.090;2022-09-13T07:11:29;32.73;;;19.53;;
69894;SDS011;57172;52.034;5.090;2022-09-13T07:13:58;30.40;;;17.95;;
69894;SDS011;57172;52.034;5.090;2022-09-13T07:16:25;26.88;;;17.45;;
69894;SDS011;57172;52.034;5.090;2022-09-13T07:18:58;27.40;;;17.23;;
69894;SDS011;57172;52.034;5.090;2022-09-13T07:21:26;26.80;;;17.55;;
69894;SDS011;57172;52.034;5.090;2022-09-13T07:23:54;22.67;;;15.10;;
69894;SDS011;57172;52.034;5.090;2022-09-13T07:26:22;25.02;;;16.17;;
69894;SDS011;57172;52.034;5.090;2022-09-13T07:28:52;23.77;;;14.70;;
69894;SDS011;57172;52.034;5.090;2022-09-13T07:31:21;23.40;;;14.40;;
69894;SDS011;57172;52.034;5.090;2022-09-13T07:33:54;20.27;;;13.07;;
69894;SDS011;57172;52.034;5.090;2022-09-13T07:36:22;20.00;;;13.37;;
69894;SDS011;57172;52.034;5.090;2022-09-13T07:38:50;21.05;;;13.25;;
69894;SDS011;57172;52.034;5.090;2022-09-13T07:41:18;24.83;;;14.52;;
69894;SDS011;57172;52.034;5.090;2022-09-13T07:43:46;21.17;;;14.23;;
69894;SDS011;57172;52.034;5.090;2022-09-13T07:46:15;20.85;;;12.95;;
69894;SDS011;57172;52.034;5.090;2022-09-13T07:48:44;19.77;;;11.57;;
69894;SDS011;57172;52.034;5.090;2022-09-13T07:51:13;18.23;;;11.77;;
69894;SDS011;57172;52.034;5.090;2022-09-13T07:53:42;16.02;;;11.20;;
69894;SDS011;57172;52.034;5.090;2022-09-13T07:56:17;16.95;;;11.73;;
69894;SDS011;57172;52.034;5.090;2022-09-13T07:58:46;23.75;;;12.82;;
69894;SDS011;57172;52.034;5.090;2022-09-13T08:01:18;16.20;;;11.07;;
69894;SDS011;57172;52.034;5.090;2022-09-13T08:06:23;17.55;;;11.13;;
69894;SDS011;57172;52.034;5.090;2022-09-13T08:08:51;18.40;;;11.32;;
69894;SDS011;57172;52.034;5.090;2022-09-13T08:11:22;17.17;;;11.10;;
69894;SDS011;57172;52.034;5.090;2022-09-13T08:13:52;18.00;;;11.73;;
69894;SDS011;57172;52.034;5.090;2022-09-13T08:16:20;18.70;;;11.95;;
69894;SDS011;57172;52.034;5.090;2022-09-13T08:18:51;15.63;;;10.43;;
69894;SDS011;57172;52.034;5.090;2022-09-13T08:21:20;16.55;;;10.55;;
69894;SDS011;57172;52.034;5.090;2022-09-13T08:23:48;15.48;;;9.85;;
69894;SDS011;57172;52.034;5.090;2022-09-13T08:26:15;17.97;;;9.80;;
69894;SDS011;57172;52.034;5.090;2022-09-13T08:28:42;15.23;;;10.00;;
69894;SDS011;57172;52.034;5.090;2022-09-13T08:31:10;13.25;;;8.55;;
69894;SDS011;57172;52.034;5.090;2022-09-13T08:33:43;16.70;;;8.43;;
69894;SDS011;57172;52.034;5.090;2022-09-13T08:36:12;13.68;;;8.77;;
69894;SDS011;57172;52.034;5.090;2022-09-13T08:38:43;15.57;;;8.00;;
69894;SDS011;57172;52.034;5.090;2022-09-13T08:41:20;12.82;;;7.90;;
69894;SDS011;57172;52.034;5.090;2022-09-13T08:46:38;10.32;;;6.25;;
69894;SDS011;57172;52.034;5.090;2022-09-13T08:49:11;9.38;;;5.43;;
69894;SDS011;57172;52.034;5.090;2022-09-13T08:51:44;13.17;;;6.03;;
69894;SDS011;57172;52.034;5.090;2022-09-13T08:54:17;11.20;;;5.63;;
69894;SDS011;57172;52.034;5.090;2022-09-13T09:02:24;8.13;;;4.50;;
69894;SDS011;57172;52.034;5.090;2022-09-13T09:05:18;7.50;;;3.97;;
69894;SDS011;57172;52.034;5.090;2022-09-13T09:10:31;6.50;;;3.60;;
69894;SDS011;57172;52.034;5.090;2022-09-13T09:13:03;6.13;;;4.20;;
69894;SDS011;57172;52.034;5.090;2022-09-13T09:15:38;5.20;;;3.20;;
69894;SDS011;57172;52.034;5.090;2022-09-13T09:18:20;7.93;;;3.50;;
69894;SDS011;57172;52.034;5.090;2022-09-13T09:20:55;7.97;;;3.38;;
69894;SDS011;57172;52.034;5.090;2022-09-13T09:23:30;6.13;;;3.10;;
69894;SDS011;57172;52.034;5.090;2022-09-13T09:26:25;6.93;;;3.03;;
69894;SDS011;57172;52.034;5.090;2022-09-13T09:28:57;5.03;;;2.85;;
69894;SDS011;57172;52.034;5.090;2022-09-13T09:34:14;4.57;;;2.90;;
69894;SDS011;57172;52.034;5.090;2022-09-13T09:37:07;7.47;;;2.83;;
69894;SDS011;57172;52.034;5.090;2022-09-13T09:39:47;7.20;;;3.03;;
69894;SDS011;57172;52.034;5.090;2022-09-13T09:42:20;6.22;;;3.13;;
69894;SDS011;57172;52.034;5.090;2022-09-13T09:44:51;4.60;;;2.57;;
69894;SDS011;57172;52.034;5.090;2022-09-13T09:47:28;5.22;;;2.42;;
69894;SDS011;57172;52.034;5.090;2022-09-13T09:53:03;4.07;;;2.20;;
69894;SDS011;57172;52.034;5.090;2022-09-13T09:58:49;4.27;;;2.50;;
69894;SDS011;57172;52.034;5.090;2022-09-13T10:01:19;17.65;;;2.38;;
69894;SDS011;57172;52.034;5.090;2022-09-13T10:04:05;4.72;;;2.00;;
69894;SDS011;57172;52.034;5.090;2022-09-13T10:06:36;3.10;;;1.83;;
69894;SDS011;57172;52.034;5.090;2022-09-13T10:14:26;2.90;;;1.95;;
69894;SDS011;57172;52.034;5.090;2022-09-13T10:22:27;4.38;;;2.30;;
69894;SDS011;57172;52.034;5.090;2022-09-13T10:27:55;5.38;;;2.35;;
69894;SDS011;57172;52.034;5.090;2022-09-13T10:30:32;6.70;;;2.35;;
69894;SDS011;57172;52.034;5.090;2022-09-13T10:33:27;5.63;;;2.03;;
69894;SDS011;57172;52.034;5.090;2022-09-13T10:36:15;3.75;;;2.10;;
69894;SDS011;57172;52.034;5.090;2022-09-13T10:39:06;9.77;;;2.27;;
69894;SDS011;57172;52.034;5.090;2022-09-13T10:42:19;5.40;;;2.40;;
69894;SDS011;57172;52.034;5.090;2022-09-13T10:44:50;3.80;;;2.10;;
69894;SDS011;57172;52.034;5.090;2022-09-13T10:47:31;7.60;;;2.10;;
69894;SDS011;57172;52.034;5.090;2022-09-13T10:52:49;4.13;;;2.00;;
69894;SDS011;57172;52.034;5.090;2022-09-13T11:00:15;5.18;;;2.20;;
69894;SDS011;57172;52.034;5.090;2022-09-13T11:10:30;4.50;;;2.00;;
69894;SDS011;57172;52.034;5.090;2022-09-13T11:14:03;6.03;;;2.10;;
69894;SDS011;57172;52.034;5.090;2022-09-13T11:30:20;5.03;;;2.00;;
69894;SDS011;57172;52.034;5.090;2022-09-13T11:47:39;7.83;;;2.20;;
69894;SDS011;57172;52.034;5.090;2022-09-13T11:55:53;4.50;;;1.70;;
69894;SDS011;57172;52.034;5.090;2022-09-13T12:01:30;4.40;;;2.10;;
69894;SDS011;57172;52.034;5.090;2022-09-13T12:16:04;4.35;;;1.83;;
69894;SDS011;57172;52.034;5.090;2022-09-13T12:18:41;3.15;;;1.67;;
69894;SDS011;57172;52.034;5.090;2022-09-13T12:21:15;4.27;;;1.77;;
69894;SDS011;57172;52.034;5.090;2022-09-13T12:23:59;3.80;;;1.60;;
69894;SDS011;57172;52.034;5.090;2022-09-13T12:26:54;3.58;;;1.63;;
69894;SDS011;57172;52.034;5.090;2022-09-13T12:29:33;3.63;;;1.70;;
69894;SDS011;57172;52.034;5.090;2022-09-13T12:32:05;4.60;;;1.60;;
69894;SDS011;57172;52.034;5.090;2022-09-13T12:37:19;4.00;;;1.40;;
69894;SDS011;57172;52.034;5.090;2022-09-13T12:43:37;3.10;;;1.40;;
69894;SDS011;57172;52.034;5.090;2022-09-13T13:05:54;5.25;;;1.30;;
69894;SDS011;57172;52.034;5.090;2022-09-13T13:08:35;5.50;;;1.40;;
69894;SDS011;57172;52.034;5.090;2022-09-13T13:11:06;4.47;;;1.38;;
69894;SDS011;57172;52.034;5.090;2022-09-13T13:13:39;3.97;;;1.30;;
69894;SDS011;57172;52.034;5.090;2022-09-13T13:18:51;3.28;;;1.30;;
69894;SDS011;57172;52.034;5.090;2022-09-13T13:26:47;4.22;;;1.40;;
69894;SDS011;57172;52.034;5.090;2022-09-13T13:31:44;2.72;;;1.20;;
69894;SDS011;57172;52.034;5.090;2022-09-13T13:34:28;3.80;;;1.38;;
69894;SDS011;57172;52.034;5.090;2022-09-13T13:39:47;4.35;;;1.60;;
69894;SDS011;57172;52.034;5.090;2022-09-13T13:42:35;5.10;;;1.80;;
69894;SDS011;57172;52.034;5.090;2022-09-13T13:45:47;5.57;;;1.60;;
69894;SDS011;57172;52.034;5.090;2022-09-13T13:48:15;4.55;;;1.55;;
69894;SDS011;57172;52.034;5.090;2022-09-13T13:53:47;3.78;;;1.67;;
69894;SDS011;57172;52.034;5.090;2022-09-13T13:56:46;4.67;;;1.73;;
69894;SDS011;57172;52.034;5.090;2022-09-13T13:59:18;3.45;;;1.48;;
69894;SDS011;57172;52.034;5.090;2022-09-13T14:01:57;4.15;;;1.45;;
69894;SDS011;57172;52.034;5.090;2022-09-13T14:19:17;2.80;;;1.33;;
69894;SDS011;57172;52.034;5.090;2022-09-13T14:22:11;3.97;;;1.40;;
69894;SDS011;57172;52.034;5.090;2022-09-13T14:24:43;5.10;;;1.27;;
69894;SDS011;57172;52.034;5.090;2022-09-13T14:27:16;5.30;;;1.50;;
69894;SDS011;57172;52.034;5.090;2022-09-13T14:29:57;4.50;;;1.63;;
69894;SDS011;57172;52.034;5.090;2022-09-13T14:32:27;3.95;;;1.65;;
69894;SDS011;57172;52.034;5.090;2022-09-13T14:35:06;4.88;;;1.60;;
69894;SDS011;57172;52.034;5.090;2022-09-13T14:37:48;4.43;;;1.70;;
69894;SDS011;57172;52.034;5.090;2022-09-13T14:42:52;5.15;;;1.70;;
69894;SDS011;57172;52.034;5.090;2022-09-13T14:45:38;5.00;;;1.40;;
69894;SDS011;57172;52.034;5.090;2022-09-13T14:48:20;3.63;;;1.50;;
69894;SDS011;57172;52.034;5.090;2022-09-13T14:53:40;4.95;;;1.60;;
69894;SDS011;57172;52.034;5.090;2022-09-13T14:56:14;5.18;;;1.60;;
69894;SDS011;57172;52.034;5.090;2022-09-13T14:58:53;4.07;;;1.65;;
69894;SDS011;57172;52.034;5.090;2022-09-13T15:01:28;6.50;;;1.50;;
69894;SDS011;57172;52.034;5.090;2022-09-13T15:03:58;5.63;;;1.50;;
69894;SDS011;57172;52.034;5.090;2022-09-13T15:06:28;5.38;;;1.60;;
69894;SDS011;57172;52.034;5.090;2022-09-13T15:14:22;4.50;;;1.70;;
69894;SDS011;57172;52.034;5.090;2022-09-13T15:16:50;5.13;;;1.70;;
69894;SDS011;57172;52.034;5.090;2022-09-13T15:21:49;5.07;;;1.80;;
69894;SDS011;57172;52.034;5.090;2022-09-13T15:24:20;5.53;;;1.90;;
69894;SDS011;57172;52.034;5.090;2022-09-13T15:27:01;4.95;;;1.55;;
69894;SDS011;57172;52.034;5.090;2022-09-13T15:29:33;4.23;;;1.57;;
69894;SDS011;57172;52.034;5.090;2022-09-13T15:32:03;4.00;;;1.55;;
69894;SDS011;57172;52.034;5.090;2022-09-13T15:34:31;4.45;;;1.60;;
69894;SDS011;57172;52.034;5.090;2022-09-13T15:40:22;7.60;;;1.80;;
69894;SDS011;57172;52.034;5.090;2022-09-13T15:42:47;5.40;;;1.60;;
69894;SDS011;57172;52.034;5.090;2022-09-13T15:45:15;5.18;;;1.55;;
69894;SDS011;57172;52.034;5.090;2022-09-13T15:47:44;7.85;;;1.70;;
69894;SDS011;57172;52.034;5.090;2022-09-13T15:50:25;7.00;;;1.65;;
69894;SDS011;57172;52.034;5.090;2022-09-13T15:52:56;6.45;;;1.60;;
69894;SDS011;57172;52.034;5.090;2022-09-13T15:55:24;4.70;;;1.63;;
69894;SDS011;57172;52.034;5.090;2022-09-13T15:57:52;8.13;;;1.92;;
69894;SDS011;57172;52.034;5.090;2022-09-13T16:00:24;4.18;;;1.58;;
69894;SDS011;57172;52.034;5.090;2022-09-13T16:02:53;5.68;;;1.70;;
69894;SDS011;57172;52.034;5.090;2022-09-13T16:05:20;5.22;;;1.98;;
69894;SDS011;57172;52.034;5.090;2022-09-13T16:07:47;6.20;;;1.70;;
69894;SDS011;57172;52.034;5.090;2022-09-13T16:10:15;3.45;;;1.67;;
69894;SDS011;57172;52.034;5.090;2022-09-13T16:12:45;8.30;;;1.73;;
69894;SDS011;57172;52.034;5.090;2022-09-13T16:15:12;8.60;;;1.80;;
69894;SDS011;57172;52.034;5.090;2022-09-13T16:17:39;6.88;;;1.70;;
69894;SDS011;57172;52.034;5.090;2022-09-13T16:20:10;6.47;;;1.80;;
69894;SDS011;57172;52.034;5.090;2022-09-13T16:22:38;7.65;;;1.80;;
69894;SDS011;57172;52.034;5.090;2022-09-13T16:25:05;7.47;;;1.80;;
69894;SDS011;57172;52.034;5.090;2022-09-13T16:27:33;5.20;;;1.80;;
69894;SDS011;57172;52.034;5.090;2022-09-13T16:29:59;7.47;;;1.52;;
69894;SDS011;57172;52.034;5.090;2022-09-13T16:32:27;4.47;;;1.33;;
69894;SDS011;57172;52.034;5.090;2022-09-13T16:34:53;4.57;;;1.50;;
69894;SDS011;57172;52.034;5.090;2022-09-13T16:37:20;6.28;;;1.70;;
69894;SDS011;57172;52.034;5.090;2022-09-13T16:39:47;3.63;;;1.40;;
69894;SDS011;57172;52.034;5.090;2022-09-13T16:42:15;4.68;;;1.40;;
69894;SDS011;57172;52.034;5.090;2022-09-13T16:44:42;4.90;;;1.60;;
69894;SDS011;57172;52.034;5.090;2022-09-13T16:47:09;8.00;;;1.60;;
69894;SDS011;57172;52.034;5.090;2022-09-13T16:49:36;4.68;;;1.40;;
69894;SDS011;57172;52.034;5.090;2022-09-13T16:52:03;4.38;;;1.42;;
69894;SDS011;57172;52.034;5.090;2022-09-13T16:54:31;6.00;;;1.60;;
69894;SDS011;57172;52.034;5.090;2022-09-13T16:57:00;8.00;;;1.70;;
69894;SDS011;57172;52.034;5.090;2022-09-13T16:59:29;4.15;;;1.50;;
69894;SDS011;57172;52.034;5.090;2022-09-13T17:01:57;5.47;;;1.55;;
69894;SDS011;57172;52.034;5.090;2022-09-13T17:04:24;4.03;;;1.50;;
69894;SDS011;57172;52.034;5.090;2022-09-13T17:06:51;5.43;;;1.50;;
69894;SDS011;57172;52.034;5.090;2022-09-13T17:09:18;4.50;;;1.70;;
69894;SDS011;57172;52.034;5.090;2022-09-13T17:11:47;7.60;;;1.60;;
69894;SDS011;57172;52.034;5.090;2022-09-13T17:14:15;10.85;;;1.80;;
69894;SDS011;57172;52.034;5.090;2022-09-13T17:16:44;6.32;;;1.60;;
69894;SDS011;57172;52.034;5.090;2022-09-13T17:19:14;3.40;;;1.50;;
69894;SDS011;57172;52.034;5.090;2022-09-13T17:21:43;4.93;;;1.70;;
69894;SDS011;57172;52.034;5.090;2022-09-13T17:24:11;4.72;;;1.60;;
69894;SDS011;57172;52.034;5.090;2022-09-13T17:26:39;5.82;;;1.73;;
69894;SDS011;57172;52.034;5.090;2022-09-13T17:29:07;4.28;;;1.48;;
69894;SDS011;57172;52.034;5.090;2022-09-13T17:31:36;6.32;;;1.60;;
69894;SDS011;57172;52.034;5.090;2022-09-13T17:34:03;3.37;;;1.40;;
69894;SDS011;57172;52.034;5.090;2022-09-13T17:36:30;11.48;;;1.70;;
69894;SDS011;57172;52.034;5.090;2022-09-13T17:38:57;7.20;;;1.50;;
69894;SDS011;57172;52.034;5.090;2022-09-13T17:41:25;4.45;;;1.60;;
69894;SDS011;57172;52.034;5.090;2022-09-13T17:43:52;5.25;;;1.50;;
69894;SDS011;57172;52.034;5.090;2022-09-13T17:46:20;4.07;;;1.43;;
69894;SDS011;57172;52.034;5.090;2022-09-13T17:48:50;3.92;;;1.60;;
69894;SDS011;57172;52.034;5.090;2022-09-13T17:51:19;4.88;;;1.60;;
69894;SDS011;57172;52.034;5.090;2022-09-13T17:53:52;2.67;;;1.50;;
69894;SDS011;57172;52.034;5.090;2022-09-13T17:56:22;6.03;;;1.60;;
69894;SDS011;57172;52.034;5.090;2022-09-13T17:58:51;8.47;;;2.20;;
69894;SDS011;57172;52.034;5.090;2022-09-13T18:01:18;7.07;;;2.13;;
69894;SDS011;57172;52.034;5.090;2022-09-13T18:03:45;6.35;;;2.30;;
69894;SDS011;57172;52.034;5.090;2022-09-13T18:06:12;4.03;;;1.40;;
69894;SDS011;57172;52.034;5.090;2022-09-13T18:08:40;7.43;;;1.58;;
69894;SDS011;57172;52.034;5.090;2022-09-13T18:11:11;3.40;;;1.60;;
69894;SDS011;57172;52.034;5.090;2022-09-13T18:13:46;7.68;;;1.60;;
69894;SDS011;57172;52.034;5.090;2022-09-13T18:16:14;4.60;;;1.55;;
69894;SDS011;57172;52.034;5.090;2022-09-13T18:18:47;6.97;;;1.58;;
69894;SDS011;57172;52.034;5.090;2022-09-13T18:21:15;3.35;;;1.50;;
69894;SDS011;57172;52.034;5.090;2022-09-13T18:23:48;5.27;;;1.47;;
69894;SDS011;57172;52.034;5.090;2022-09-13T18:26:17;5.10;;;1.35;;
69894;SDS011;57172;52.034;5.090;2022-09-13T18:28:47;9.00;;;1.60;;
69894;SDS011;57172;52.034;5.090;2022-09-13T18:31:19;5.72;;;1.70;;
69894;SDS011;57172;52.034;5.090;2022-09-13T18:33:46;7.00;;;2.00;;
69894;SDS011;57172;52.034;5.090;2022-09-13T18:36:14;6.93;;;1.60;;
69894;SDS011;57172;52.034;5.090;2022-09-13T18:38:43;6.65;;;1.60;;
69894;SDS011;57172;52.034;5.090;2022-09-13T18:41:13;6.00;;;1.70;;
69894;SDS011;57172;52.034;5.090;2022-09-13T18:43:45;5.72;;;1.40;;
69894;SDS011;57172;52.034;5.090;2022-09-13T18:46:21;5.15;;;1.55;;
69894;SDS011;57172;52.034;5.090;2022-09-13T18:48:53;8.77;;;1.60;;
69894;SDS011;57172;52.034;5.090;2022-09-13T18:51:27;4.20;;;1.50;;